Terminal Aerodrome Forecast
Issued by NWS Caribou, ME

Home | Current Version | Previous Version | Text Only | Print | Product List | Glossary On
Versions: 1 2 3 4 5 6 7 8 9 10 11 12 13 14 15 16
878
FTUS41 KCAR 070520
TAFCAR
TAF
KCAR 070520Z 0706/0806 21005KT P6SM -SN VCSH FEW040 BKN060 OVC080
     FM070900 23010KT 3SM -SHSN BR OVC020
      TEMPO 0710/0712 30025G35KT 1/4SM +SHSN VV005
     FM071200 24012KT 3SM -SHSN OVC025
     FM071400 29012G22KT P6SM VCSH BKN035
     FM071800 33012KT P6SM SCT040=

USA.gov is the U.S. government's official web portal to all federal, state and local government web resources and services.